createdAt,value
2019-01-21T00:01:13.973Z,-2.20
2019-01-21T00:03:42.270Z,-2.20
2019-01-21T00:06:10.618Z,-2.20
2019-01-21T00:08:38.945Z,-2.20
2019-01-21T00:11:07.429Z,-2.20
2019-01-21T00:13:35.710Z,-2.10
2019-01-21T00:16:04.071Z,-2.10
2019-01-21T00:18:32.361Z,-2.10
2019-01-21T00:21:00.732Z,-2.10
2019-01-21T00:23:29.077Z,-2.10
2019-01-21T00:25:57.365Z,-2.10
2019-01-21T00:28:25.666Z,-2.00
2019-01-21T00:30:53.957Z,-2.00
2019-01-21T00:33:22.243Z,-2.00
2019-01-21T00:35:50.636Z,-2.00
2019-01-21T00:38:18.970Z,-2.00
2019-01-21T00:40:47.333Z,-2.00
2019-01-21T00:43:15.615Z,-2.00
2019-01-21T00:45:43.900Z,-2.00
2019-01-21T00:48:12.213Z,-2.00
2019-01-21T00:50:40.581Z,-2.00
2019-01-21T00:53:08.952Z,-2.00
2019-01-21T00:55:37.240Z,-2.00
2019-01-21T00:58:05.632Z,-2.00
2019-01-21T01:00:33.917Z,-2.00
2019-01-21T01:03:02.213Z,-2.00
2019-01-21T01:05:30.584Z,-2.00
2019-01-21T01:07:58.872Z,-2.00
2019-01-21T01:10:27.270Z,-2.00
2019-01-21T01:12:55.552Z,-2.00
2019-01-21T01:15:23.871Z,-2.00
2019-01-21T01:17:52.224Z,-2.00
2019-01-21T01:20:22.228Z,-1.90
2019-01-21T01:22:50.540Z,-2.00
2019-01-21T01:25:18.844Z,-2.00
2019-01-21T01:27:47.118Z,-1.90
2019-01-21T01:30:16.981Z,-1.90
2019-01-21T01:32:45.333Z,-1.90
2019-01-21T01:35:14.993Z,-1.90
2019-01-21T01:37:43.925Z,-1.90
2019-01-21T01:40:14.422Z,-1.90
2019-01-21T01:42:42.699Z,-1.90
2019-01-21T01:45:14.267Z,-1.90
2019-01-21T01:47:44.782Z,-1.90
2019-01-21T01:50:13.114Z,-1.90
2019-01-21T01:52:41.412Z,-1.90
2019-01-21T01:55:10.611Z,-1.90
2019-01-21T01:57:38.970Z,-1.90
2019-01-21T02:00:13.519Z,-1.90
2019-01-21T02:02:41.827Z,-1.90
2019-01-21T02:05:10.180Z,-1.90
2019-01-21T02:07:38.570Z,-1.90
2019-01-21T02:10:12.227Z,-1.90
2019-01-21T02:12:40.589Z,-1.90
2019-01-21T02:15:11.431Z,-1.90
2019-01-21T02:17:39.808Z,-1.90
2019-01-21T02:20:11.607Z,-1.90
2019-01-21T02:22:42.483Z,-1.90
2019-01-21T02:25:11.171Z,-1.90
2019-01-21T02:27:45.653Z,-1.80
2019-01-21T02:30:29.228Z,-1.80
2019-01-21T02:33:09.514Z,-1.80
2019-01-21T02:35:41.139Z,-1.80
2019-01-21T02:38:18.517Z,-1.80
2019-01-21T02:40:52.744Z,-1.80
2019-01-21T02:43:36.592Z,-1.80
2019-01-21T02:46:08.216Z,-1.80
2019-01-21T02:48:54.681Z,-1.80
2019-01-21T02:51:31.798Z,-1.70
2019-01-21T02:54:03.349Z,-1.70
2019-01-21T02:56:40.521Z,-1.70
2019-01-21T03:02:11.170Z,-1.70
2019-01-21T03:04:51.681Z,-1.70
2019-01-21T03:07:40.063Z,-1.70
2019-01-21T03:10:28.089Z,-1.70
2019-01-21T03:13:02.225Z,-1.60
2019-01-21T03:15:56.719Z,-1.60
2019-01-21T03:18:37.310Z,-1.60
2019-01-21T03:21:11.461Z,-1.60
2019-01-21T03:24:11.453Z,-1.60
2019-01-21T03:26:59.258Z,-1.60
2019-01-21T03:29:42.723Z,-1.60
2019-01-21T03:32:35.170Z,-1.60
2019-01-21T03:35:12.204Z,-1.60
2019-01-21T03:37:56.229Z,-1.50
2019-01-21T03:40:33.675Z,-1.60
2019-01-21T03:43:13.850Z,-1.60
2019-01-21T03:46:05.319Z,-1.50
2019-01-21T03:48:36.732Z,-1.50
2019-01-21T03:51:28.972Z,-1.60
2019-01-21T03:54:03.417Z,-1.60
2019-01-21T03:56:35.075Z,-1.60
2019-01-21T03:59:21.667Z,-1.50
2019-01-21T04:02:10.893Z,-1.50
2019-01-21T04:05:03.104Z,-1.50
2019-01-21T04:07:50.997Z,-1.50
2019-01-21T04:10:30.841Z,-1.50
2019-01-21T04:13:05.007Z,-1.50
2019-01-21T04:15:55.596Z,-1.50
2019-01-21T04:18:42.252Z,-1.50
2019-01-21T04:21:22.631Z,-1.50
2019-01-21T04:24:14.844Z,-1.50
2019-01-21T04:26:52.064Z,-1.50
2019-01-21T04:29:26.307Z,-1.50
2019-01-21T04:32:00.828Z,-1.50
2019-01-21T04:34:50.063Z,-1.50
2019-01-21T04:37:38.313Z,-1.50
2019-01-21T04:40:19.152Z,-1.50
2019-01-21T04:43:14.651Z,-1.50
2019-01-21T04:46:01.213Z,-1.50
2019-01-21T04:48:38.130Z,-1.40
2019-01-21T04:51:22.199Z,-1.40
2019-01-21T04:53:59.380Z,-1.40
2019-01-21T04:56:55.705Z,-1.40
2019-01-21T04:59:46.521Z,-1.40
2019-01-21T05:02:35.288Z,-1.40
2019-01-21T05:05:20.379Z,-1.40
2019-01-21T05:08:00.797Z,-1.40
2019-01-21T05:11:01.733Z,-1.40
2019-01-21T05:13:52.614Z,-1.40
2019-01-21T05:16:30.499Z,-1.40
2019-01-21T05:19:13.691Z,-1.40
2019-01-21T05:21:56.960Z,-1.40
2019-01-21T05:24:46.592Z,-1.40
2019-01-21T05:27:21.298Z,-1.40
2019-01-21T05:30:12.009Z,-1.40
2019-01-21T05:32:58.256Z,-1.40
2019-01-21T05:35:35.461Z,-1.30
2019-01-21T05:38:12.983Z,-1.40
2019-01-21T05:40:50.208Z,-1.30
2019-01-21T05:43:51.994Z,-1.30
2019-01-21T05:46:29.544Z,-1.30
2019-01-21T05:49:03.670Z,-1.30
2019-01-21T05:51:52.175Z,-1.30
2019-01-21T05:54:40.379Z,-1.30
2019-01-21T05:57:18.111Z,-1.30
2019-01-21T06:00:17.056Z,-1.30
2019-01-21T06:02:54.474Z,-1.30
2019-01-21T06:05:28.975Z,-1.30
2019-01-21T06:08:15.818Z,-1.30
2019-01-21T06:11:06.651Z,-1.30
2019-01-21T06:13:53.459Z,-1.30
2019-01-21T06:16:39.795Z,-1.30
2019-01-21T06:19:14.480Z,-1.30
2019-01-21T06:21:49.146Z,-1.30
2019-01-21T06:24:24.440Z,-1.30
2019-01-21T06:27:27.211Z,-1.30
2019-01-21T06:30:19.860Z,-1.30
2019-01-21T06:32:54.348Z,-1.30
2019-01-21T06:35:31.609Z,-1.30
2019-01-21T06:38:22.595Z,-1.30
2019-01-21T06:41:09.167Z,-1.40
2019-01-21T06:43:49.750Z,-1.40
2019-01-21T06:46:26.978Z,-1.40
2019-01-21T06:49:29.816Z,-1.40
2019-01-21T06:52:17.807Z,-1.40
2019-01-21T06:55:14.679Z,-1.40
2019-01-21T06:58:14.509Z,-1.40
2019-01-21T07:00:48.573Z,-1.40
2019-01-21T07:03:31.779Z,-1.40
2019-01-21T07:06:03.338Z,-1.40
2019-01-21T07:08:55.942Z,-1.40
2019-01-21T07:11:33.236Z,-1.40
2019-01-21T07:14:04.858Z,-1.40
2019-01-21T07:16:36.489Z,-1.40
2019-01-21T07:19:13.998Z,-1.40
2019-01-21T07:21:54.169Z,-1.40
2019-01-21T07:24:28.310Z,-1.40
2019-01-21T07:27:17.499Z,-1.40
2019-01-21T07:30:04.389Z,-1.40
2019-01-21T07:32:53.880Z,-1.40
2019-01-21T07:35:41.984Z,-1.40
2019-01-21T07:38:16.323Z,-1.40
2019-01-21T07:41:04.101Z,-1.40
2019-01-21T07:43:41.056Z,-1.40
2019-01-21T07:46:24.529Z,-1.40
2019-01-21T07:49:30.673Z,-1.40
2019-01-21T07:55:30.374Z,-1.30
2019-01-21T07:58:13.886Z,-1.30
2019-01-21T08:00:48.501Z,-1.30
2019-01-21T08:03:29.198Z,-1.30
2019-01-21T08:06:03.539Z,-1.30
2019-01-21T08:08:47.078Z,-1.30
2019-01-21T08:11:33.729Z,-1.20
2019-01-21T08:14:08.118Z,-1.20
2019-01-21T08:16:59.288Z,-1.30
2019-01-21T08:19:33.736Z,-1.30
2019-01-21T08:22:23.407Z,-1.20
2019-01-21T08:25:16.030Z,-1.30
2019-01-21T08:27:50.367Z,-1.20
2019-01-21T08:30:21.924Z,-1.20
2019-01-21T08:33:17.502Z,-1.20
2019-01-21T08:36:00.860Z,-1.20
2019-01-21T08:38:51.831Z,-1.20
2019-01-21T08:41:42.598Z,-1.20
2019-01-21T08:44:19.828Z,-1.10
2019-01-21T08:47:03.517Z,-1.10
2019-01-21T08:49:44.132Z,-1.00
2019-01-21T08:52:27.566Z,-1.00
2019-01-21T08:55:10.813Z,-1.00
2019-01-21T08:57:58.734Z,-0.90
2019-01-21T09:00:30.366Z,-0.90
2019-01-21T09:03:14.597Z,-0.90
2019-01-21T09:05:52.246Z,-0.80
2019-01-21T09:08:29.628Z,-0.80
2019-01-21T09:11:13.053Z,-0.80
2019-01-21T09:13:53.286Z,-0.80
2019-01-21T09:16:42.849Z,-0.80
2019-01-21T09:19:29.435Z,-0.90
2019-01-21T09:22:32.581Z,-0.90
2019-01-21T09:25:04.244Z,-1.00
2019-01-21T09:27:45.050Z,-0.90
2019-01-21T09:30:16.695Z,-0.90
2019-01-21T09:32:57.097Z,-0.90
2019-01-21T09:35:45.207Z,-0.90
2019-01-21T09:38:37.824Z,-0.80
2019-01-21T09:41:11.953Z,-0.90
2019-01-21T09:43:55.430Z,-0.80
2019-01-21T09:46:44.856Z,-0.80
2019-01-21T09:49:13.504Z,-0.80
2019-01-21T09:51:44.398Z,-0.90
2019-01-21T09:54:12.763Z,-0.90
2019-01-21T09:56:41.327Z,-0.90
2019-01-21T09:59:09.665Z,-0.90
2019-01-21T10:01:38.034Z,-0.90
2019-01-21T10:04:06.322Z,-0.80
2019-01-21T10:06:47.267Z,-0.80
2019-01-21T10:09:37.039Z,-0.80
2019-01-21T10:12:26.587Z,-0.90
2019-01-21T10:15:03.899Z,-0.90
2019-01-21T10:17:35.485Z,-0.90
2019-01-21T10:20:23.372Z,-0.90
2019-01-21T10:23:11.387Z,-0.80
2019-01-21T10:25:57.722Z,-0.80
2019-01-21T10:28:51.868Z,-0.80
2019-01-21T10:31:39.905Z,-0.80
2019-01-21T10:34:26.336Z,-0.80
2019-01-21T10:37:00.494Z,-0.70
2019-01-21T10:39:47.049Z,-0.70
2019-01-21T10:42:42.467Z,-0.70
2019-01-21T10:45:25.852Z,-0.70
2019-01-21T10:48:00.172Z,-0.60
2019-01-21T10:50:34.259Z,-0.60
2019-01-21T10:53:08.543Z,-0.50
2019-01-21T10:55:58.205Z,-0.50
2019-01-21T10:58:38.502Z,-0.50
2019-01-21T11:01:33.624Z,-0.50
2019-01-21T11:04:07.633Z,-0.50
2019-01-21T11:06:56.958Z,-0.60
2019-01-21T11:09:31.172Z,-0.70
2019-01-21T11:12:20.805Z,-0.80
2019-01-21T11:15:04.411Z,-0.80
2019-01-21T11:17:41.779Z,-0.80
2019-01-21T11:20:35.272Z,-0.80
2019-01-21T11:23:18.494Z,-0.90
2019-01-21T11:25:58.104Z,-0.90
2019-01-21T11:28:32.604Z,-1.00
2019-01-21T11:31:25.196Z,-1.00
2019-01-21T11:33:59.336Z,-0.90
2019-01-21T11:36:36.951Z,-0.90
2019-01-21T11:39:11.827Z,-0.90
2019-01-21T11:42:16.536Z,-0.90
2019-01-21T11:45:07.680Z,-0.90
2019-01-21T11:47:42.028Z,-0.90
2019-01-21T11:50:16.426Z,-0.90
2019-01-21T11:52:51.870Z,-1.00
2019-01-21T11:55:25.949Z,-0.90
2019-01-21T11:58:11.978Z,-1.00
2019-01-21T12:00:46.276Z,-1.10
2019-01-21T12:03:23.565Z,-1.10
2019-01-21T12:05:53.376Z,-1.10
2019-01-21T12:08:54.884Z,-1.10
2019-01-21T12:11:32.490Z,-1.20
2019-01-21T12:14:06.867Z,-1.10
2019-01-21T12:16:44.201Z,-1.20
2019-01-21T12:19:24.643Z,-1.20
2019-01-21T12:22:10.331Z,-1.30
2019-01-21T12:24:38.775Z,-1.40
2019-01-21T12:27:16.189Z,-1.40
2019-01-21T12:29:53.499Z,-1.40
2019-01-21T12:32:45.838Z,-1.40
2019-01-21T12:35:26.012Z,-1.40
2019-01-21T12:38:12.322Z,-1.40
2019-01-21T12:41:06.190Z,-1.30
2019-01-21T12:43:49.629Z,-1.30
2019-01-21T12:46:30.368Z,-1.40
2019-01-21T12:49:07.795Z,-1.40
2019-01-21T12:52:00.061Z,-1.30
2019-01-21T12:54:31.734Z,-1.30
2019-01-21T12:57:24.366Z,-1.30
2019-01-21T13:00:15.267Z,-1.30
2019-01-21T13:02:52.380Z,-1.30
2019-01-21T13:05:32.535Z,-1.30
2019-01-21T13:08:09.720Z,-1.30
2019-01-21T13:10:47.278Z,-1.30
2019-01-21T13:13:30.207Z,-1.30
2019-01-21T13:16:13.438Z,-1.20
2019-01-21T13:19:00.275Z,-1.20
2019-01-21T13:21:46.799Z,-1.20
2019-01-21T13:24:21.167Z,-1.20
2019-01-21T13:26:52.833Z,-1.20
2019-01-21T13:29:27.255Z,-1.20
2019-01-21T13:32:04.632Z,-1.30
2019-01-21T13:34:36.267Z,-1.30
2019-01-21T13:37:24.301Z,-1.20
2019-01-21T13:40:01.744Z,-1.20
2019-01-21T13:42:33.371Z,-1.20
2019-01-21T13:45:19.904Z,-1.30
2019-01-21T13:48:03.209Z,-1.20
2019-01-21T13:50:46.394Z,-1.30
2019-01-21T13:53:40.673Z,-1.30
2019-01-21T13:56:18.137Z,-1.30
2019-01-21T13:59:04.799Z,-1.40
2019-01-21T14:01:39.224Z,-1.40
2019-01-21T14:04:19.865Z,-1.40
2019-01-21T14:06:54.164Z,-1.40
2019-01-21T14:09:48.164Z,-1.30
2019-01-21T14:12:34.756Z,-1.40
2019-01-21T14:15:25.830Z,-1.40
2019-01-21T14:18:13.996Z,-1.40
2019-01-21T14:21:03.070Z,-1.40
2019-01-21T14:23:49.588Z,-1.40
2019-01-21T14:26:33.161Z,-1.50
2019-01-21T14:29:04.705Z,-1.50
2019-01-21T14:31:44.832Z,-1.50
2019-01-21T14:34:28.608Z,-1.50
2019-01-21T14:37:24.285Z,-1.50
2019-01-21T14:40:04.465Z,-1.50
2019-01-21T14:42:53.849Z,-1.50
2019-01-21T14:45:27.078Z,-1.50
2019-01-21T14:48:07.353Z,-1.50
2019-01-21T14:50:50.549Z,-1.50
2019-01-21T14:53:37.698Z,-1.60
2019-01-21T14:56:14.776Z,-1.60
2019-01-21T14:58:46.437Z,-1.60
2019-01-21T15:01:29.669Z,-1.60
2019-01-21T15:04:34.537Z,-1.60
2019-01-21T15:07:08.699Z,-1.70
2019-01-21T15:09:40.349Z,-1.70
2019-01-21T15:12:29.840Z,-1.70
2019-01-21T15:15:16.730Z,-1.80
2019-01-21T15:18:04.933Z,-1.80
2019-01-21T15:20:36.615Z,-1.80
2019-01-21T15:23:26.240Z,-1.90
2019-01-21T15:26:19.015Z,-1.90
2019-01-21T15:29:07.288Z,-1.90
2019-01-21T15:31:47.670Z,-1.90
2019-01-21T15:34:36.940Z,-1.80
2019-01-21T15:37:11.384Z,-1.90
2019-01-21T15:39:43.119Z,-1.90
2019-01-21T15:42:17.284Z,-2.00
2019-01-21T15:44:51.545Z,-2.00
2019-01-21T15:47:26.011Z,-2.00
2019-01-21T15:50:21.471Z,-2.00
2019-01-21T15:53:12.331Z,-1.90
2019-01-21T15:55:49.482Z,-1.90
2019-01-21T15:58:48.082Z,-1.90
2019-01-21T16:01:19.614Z,-1.90
2019-01-21T16:03:56.262Z,-2.00
2019-01-21T16:06:36.317Z,-2.00
2019-01-21T16:09:25.914Z,-2.00
2019-01-21T16:12:09.123Z,-2.00
2019-01-21T16:14:46.988Z,-2.10
2019-01-21T16:17:30.035Z,-2.10
2019-01-21T16:20:00.948Z,-2.10
2019-01-21T16:22:43.278Z,-2.10
2019-01-21T16:25:17.589Z,-2.10
2019-01-21T16:28:00.547Z,-2.10
2019-01-21T16:30:53.263Z,-2.10
2019-01-21T16:33:54.440Z,-2.10
2019-01-21T16:36:37.699Z,-2.10
2019-01-21T16:39:17.923Z,-2.20
2019-01-21T16:41:51.913Z,-2.20
2019-01-21T16:44:20.201Z,-2.20
2019-01-21T16:46:48.586Z,-2.20
2019-01-21T16:49:16.876Z,-2.20
2019-01-21T16:51:45.150Z,-2.20
2019-01-21T16:54:13.450Z,-2.20
2019-01-21T16:56:41.848Z,-2.10
2019-01-21T16:59:10.132Z,-2.10
2019-01-21T17:01:38.434Z,-2.10
2019-01-21T17:04:06.831Z,-2.10
2019-01-21T17:06:35.226Z,-2.10
2019-01-21T17:09:05.133Z,-2.10
2019-01-21T17:11:33.433Z,-2.00
2019-01-21T17:14:21.251Z,-2.00
2019-01-21T17:16:49.637Z,-2.00
2019-01-21T17:19:17.987Z,-2.00
2019-01-21T17:21:46.324Z,-2.00
2019-01-21T17:24:14.675Z,-2.00
2019-01-21T17:26:43.454Z,-1.90
2019-01-21T17:29:11.780Z,-1.90
2019-01-21T17:31:41.792Z,-2.00
2019-01-21T17:34:10.182Z,-1.90
2019-01-21T17:36:38.459Z,-1.90
2019-01-21T17:39:07.779Z,-1.80
2019-01-21T17:41:36.082Z,-1.80
2019-01-21T17:44:04.458Z,-1.80
2019-01-21T17:46:32.886Z,-1.90
2019-01-21T17:49:04.619Z,-1.90
2019-01-21T17:51:34.436Z,-1.90
2019-01-21T17:54:03.423Z,-1.90
2019-01-21T17:56:31.697Z,-1.90
2019-01-21T17:59:00.021Z,-1.90
2019-01-21T18:01:28.315Z,-1.90
2019-01-21T18:03:56.668Z,-1.90
2019-01-21T18:06:25.304Z,-1.90
2019-01-21T18:08:53.688Z,-1.90
2019-01-21T18:11:22.029Z,-1.90
2019-01-21T18:13:50.319Z,-1.80
2019-01-21T18:16:18.616Z,-1.80
2019-01-21T18:18:46.974Z,-1.80
2019-01-21T18:21:15.354Z,-1.80
2019-01-21T18:23:43.621Z,-1.80
2019-01-21T18:26:11.988Z,-1.90
2019-01-21T18:28:40.400Z,-1.90
2019-01-21T18:31:08.744Z,-2.00
2019-01-21T18:33:37.120Z,-2.10
2019-01-21T18:36:05.497Z,-2.20
2019-01-21T18:38:33.788Z,-2.10
2019-01-21T18:41:02.079Z,-2.10
2019-01-21T18:43:30.432Z,-2.10
2019-01-21T18:45:58.762Z,-2.10
2019-01-21T18:48:27.152Z,-2.20
2019-01-21T18:50:55.436Z,-2.20
2019-01-21T18:53:24.315Z,-2.20
2019-01-21T18:55:52.735Z,-2.30
2019-01-21T18:58:21.084Z,-2.30
2019-01-21T19:00:49.375Z,-2.30
2019-01-21T19:03:17.836Z,-2.30
2019-01-21T19:05:46.110Z,-2.30
2019-01-21T19:08:14.428Z,-2.20
2019-01-21T19:10:42.824Z,-2.20
2019-01-21T19:13:11.229Z,-2.20
2019-01-21T19:15:39.610Z,-2.20
2019-01-21T19:18:07.909Z,-2.20
2019-01-21T19:20:36.208Z,-2.20
2019-01-21T19:23:05.014Z,-2.10
2019-01-21T19:25:33.315Z,-2.10
2019-01-21T19:28:01.610Z,-2.10
2019-01-21T19:30:29.959Z,-2.20
2019-01-21T19:32:58.254Z,-2.10
2019-01-21T19:35:29.639Z,-2.20
2019-01-21T19:37:57.914Z,-2.20
2019-01-21T19:40:26.209Z,-2.30
2019-01-21T19:42:54.493Z,-2.30
2019-01-21T19:45:22.915Z,-2.40
2019-01-21T19:47:51.210Z,-2.40
2019-01-21T19:50:21.445Z,-2.40
2019-01-21T19:52:49.813Z,-2.40
2019-01-21T19:55:34.383Z,-2.40
2019-01-21T19:58:04.028Z,-2.40
2019-01-21T20:00:32.334Z,-2.40
2019-01-21T20:03:00.659Z,-2.40
2019-01-21T20:05:28.960Z,-2.30
2019-01-21T20:07:57.314Z,-2.30
2019-01-21T20:10:25.653Z,-2.30
2019-01-21T20:12:54.007Z,-2.30
2019-01-21T20:15:22.326Z,-2.20
2019-01-21T20:17:50.797Z,-2.30
2019-01-21T20:20:27.861Z,-2.30
2019-01-21T20:22:57.617Z,-2.40
2019-01-21T20:25:26.287Z,-2.40
2019-01-21T20:27:54.600Z,-2.40
2019-01-21T20:30:24.390Z,-2.40
2019-01-21T20:32:52.687Z,-2.40
2019-01-21T20:35:21.013Z,-2.40
2019-01-21T20:37:49.398Z,-2.40
2019-01-21T20:40:25.867Z,-2.30
2019-01-21T20:42:54.232Z,-2.40
2019-01-21T20:45:23.285Z,-2.40
2019-01-21T20:47:51.639Z,-2.40
2019-01-21T20:50:25.312Z,-2.40
2019-01-21T20:52:53.658Z,-2.40
2019-01-21T20:55:21.970Z,-2.40
2019-01-21T20:57:50.346Z,-2.40
2019-01-21T21:00:20.682Z,-2.40
2019-01-21T21:02:52.709Z,-2.40
2019-01-21T21:05:21.136Z,-2.50
2019-01-21T21:07:49.506Z,-2.50
2019-01-21T21:10:17.991Z,-2.60
2019-01-21T21:12:46.515Z,-2.60
2019-01-21T21:15:17.988Z,-2.70
2019-01-21T21:17:46.440Z,-2.80
2019-01-21T21:20:14.881Z,-2.80
2019-01-21T21:22:43.245Z,-2.80
2019-01-21T21:25:14.604Z,-2.80
2019-01-21T21:27:42.970Z,-2.70
2019-01-21T21:30:26.081Z,-2.80
2019-01-21T21:32:54.568Z,-2.70
2019-01-21T21:35:23.329Z,-2.70
2019-01-21T21:37:51.694Z,-2.70
2019-01-21T21:40:21.715Z,-2.70
2019-01-21T21:42:50.112Z,-2.70
2019-01-21T21:45:20.312Z,-2.70
2019-01-21T21:47:48.683Z,-2.70
2019-01-21T21:50:22.634Z,-2.70
2019-01-21T21:52:51.073Z,-2.70
2019-01-21T21:55:19.425Z,-2.80
2019-01-21T21:57:47.790Z,-2.80
2019-01-21T22:00:23.960Z,-2.80
2019-01-21T22:02:53.246Z,-2.80
2019-01-21T22:05:21.607Z,-2.80
2019-01-21T22:07:49.986Z,-2.80
2019-01-21T22:10:21.161Z,-2.80
2019-01-21T22:12:50.371Z,-2.90
2019-01-21T22:15:20.898Z,-2.90
2019-01-21T22:17:49.262Z,-2.90
2019-01-21T22:20:19.775Z,-2.90
2019-01-21T22:22:48.175Z,-3.00
2019-01-21T22:25:16.839Z,-3.00
2019-01-21T22:27:45.183Z,-3.10
2019-01-21T22:30:19.746Z,-3.10
2019-01-21T22:32:48.132Z,-3.20
2019-01-21T22:35:16.528Z,-3.20
2019-01-21T22:37:45.419Z,-3.30
2019-01-21T22:40:26.862Z,-3.30
2019-01-21T22:42:55.226Z,-3.30
2019-01-21T22:45:23.591Z,-3.30
2019-01-21T22:47:51.996Z,-3.30
2019-01-21T22:50:20.349Z,-3.30
2019-01-21T22:52:48.700Z,-3.30
2019-01-21T22:55:17.340Z,-3.30
2019-01-21T22:57:45.713Z,-3.30
2019-01-21T23:00:27.711Z,-3.30
2019-01-21T23:02:56.140Z,-3.30
2019-01-21T23:05:24.579Z,-3.30
2019-01-21T23:07:52.935Z,-3.30
2019-01-21T23:10:21.285Z,-3.30
2019-01-21T23:12:49.638Z,-3.30
2019-01-21T23:15:18.011Z,-3.30
2019-01-21T23:17:46.371Z,-3.30
2019-01-21T23:20:14.741Z,-3.30
2019-01-21T23:22:48.955Z,-3.30
2019-01-21T23:25:13.137Z,-3.30
2019-01-21T23:27:41.889Z,-3.30
2019-01-21T23:30:13.445Z,-3.30
2019-01-21T23:32:41.854Z,-3.30
2019-01-21T23:35:10.215Z,-3.40
2019-01-21T23:37:38.656Z,-3.30
2019-01-21T23:40:10.021Z,-3.40
2019-01-21T23:42:38.370Z,-3.30
2019-01-21T23:45:09.016Z,-3.30
2019-01-21T23:47:37.377Z,-3.30
2019-01-21T23:50:14.064Z,-3.30
2019-01-21T23:52:42.931Z,-3.20
2019-01-21T23:55:12.645Z,-3.20
2019-01-21T23:57:41.052Z,-3.10
